SHMÚ vydal meteorologické výstrahy na Prízemný mrázVietor na horách Zobraziť výstrahy

TAF

Letisková predpoveď TAF

Informácie o správe TAF

17.09.2019 - 02:00 UTC

TAF LZSL 170200Z 1703/1712 VRB02KT 9999 FEW060 SCT095
    PROB40 1703/1705 25008KT -RA BKN035
    BECMG 1707/1709 32005KT=
TAF LZZI 170200Z 1703/1712 VRB02KT 9999 SCT015 BKN055
    TEMPO 1703/1707 7000 -RA BKN004
    BECMG 1708/1709 25006KT=

skok na menu ↑


skok na začiatok stránky ↑